Time;durP1;ratioP1;P1;durP2;ratioP2;P2;SDS_P1;SDS_P2;PMS_P1;PMS_P2;Temp;Humidity;BMP_temperature;BMP_pressure;BME280_temperature;BME280_humidity;BME280_pressure;Samples;Min_cycle;Max_cycle;Signal;HPM_P1;HPM_P2
2023/01/01 00:01:09;;;;;;;1999.90;999.90;;;11.70;99.90;;;;;;5008848;28;20454;-69
2023/01/01 00:03:36;;;;;;;1999.90;999.90;;;11.80;99.90;;;;;;5008043;28;20963;-70
2023/01/01 00:06:06;;;;;;;1999.90;999.90;;;11.90;99.90;;;;;;5008140;28;20485;-68
2023/01/01 00:08:34;;;;;;;1999.90;999.90;;;11.80;99.90;;;;;;5001442;28;20488;-69
2023/01/01 00:11:02;;;;;;;1999.90;999.90;;;11.90;99.90;;;;;;5005909;28;20477;-69
2023/01/01 00:13:29;;;;;;;1999.90;999.90;;;12.00;99.90;;;;;;5007561;28;20486;-70
2023/01/01 00:15:56;;;;;;;1999.90;999.90;;;12.10;99.90;;;;;;5008275;28;20446;-69
2023/01/01 00:18:22;;;;;;;1999.90;999.90;;;12.10;99.90;;;;;;5005461;28;20450;-68
2023/01/01 00:20:49;;;;;;;1999.90;999.90;;;12.10;99.90;;;;;;5007400;28;20453;-70
2023/01/01 00:23:16;;;;;;;1999.90;999.90;;;12.10;99.90;;;;;;5007427;28;20470;-69
2023/01/01 00:25:43;;;;;;;1999.90;999.90;;;12.00;99.90;;;;;;5008393;28;20458;-70
2023/01/01 00:28:11;;;;;;;1999.90;999.90;;;12.00;99.90;;;;;;5007721;28;20532;-69
2023/01/01 00:30:41;;;;;;;1999.90;999.90;;;12.00;99.90;;;;;;5008048;28;20454;-68
2023/01/01 00:33:08;;;;;;;1999.90;999.90;;;11.90;99.90;;;;;;5007976;28;21069;-69
2023/01/01 00:35:35;;;;;;;1999.90;999.90;;;11.90;99.90;;;;;;5007696;28;20970;-68
2023/01/01 00:38:02;;;;;;;1999.90;999.90;;;11.90;99.90;;;;;;5007986;28;20465;-69
2023/01/01 00:40:28;;;;;;;1999.90;999.90;;;11.90;99.90;;;;;;5006782;28;20456;-69
2023/01/01 00:42:55;;;;;;;1999.90;999.90;;;11.80;99.90;;;;;;5003728;28;20453;-67
2023/01/01 00:45:24;;;;;;;1999.90;999.90;;;11.80;99.90;;;;;;4996798;28;20462;-69
2023/01/01 00:47:52;;;;;;;1999.90;999.90;;;11.80;99.90;;;;;;5004725;28;20500;-69
2023/01/01 00:50:19;;;;;;;1999.90;999.90;;;11.80;99.90;;;;;;5005220;28;20457;-69
2023/01/01 00:52:47;;;;;;;1999.90;999.90;;;11.70;99.90;;;;;;5006660;28;20456;-70
2023/01/01 00:55:15;;;;;;;1999.90;999.90;;;11.80;99.90;;;;;;5007951;28;20457;-71
2023/01/01 00:57:42;;;;;;;1999.90;999.90;;;11.80;99.90;;;;;;5008378;28;20814;-70
2023/01/01 01:00:10;;;;;;;1999.90;999.90;;;11.80;99.90;;;;;;5007477;28;20834;-69
2023/01/01 01:02:38;;;;;;;1999.90;999.90;;;11.80;99.90;;;;;;5006706;28;20992;-69
2023/01/01 01:05:06;;;;;;;1999.90;999.90;;;12.00;99.90;;;;;;5007957;28;20449;-70
2023/01/01 01:07:35;;;;;;;1999.90;999.90;;;12.10;99.90;;;;;;5006256;28;20485;-72
2023/01/01 01:10:01;;;;;;;1999.90;999.90;;;12.10;99.90;;;;;;5006844;28;20484;-70
2023/01/01 01:12:28;;;;;;;1999.90;999.90;;;12.20;99.90;;;;;;5006904;28;20820;-70
2023/01/01 01:14:55;;;;;;;1999.90;999.90;;;12.20;99.90;;;;;;5007633;28;20461;-70
2023/01/01 01:17:22;;;;;;;1999.90;999.90;;;12.10;99.90;;;;;;5014810;28;20465;-69
2023/01/01 01:19:50;;;;;;;1999.90;999.90;;;12.10;99.90;;;;;;5023985;28;20441;-69
2023/01/01 01:22:17;;;;;;;1999.90;999.90;;;12.00;99.90;;;;;;5026153;28;20457;-70
2023/01/01 01:24:43;;;;;;;1999.90;999.90;;;12.00;99.90;;;;;;5027077;28;21071;-68
2023/01/01 01:27:10;;;;;;;1999.90;999.90;;;12.10;99.90;;;;;;5027261;28;20485;-69
2023/01/01 01:29:37;;;;;;;1999.90;999.90;;;12.10;99.90;;;;;;5025800;28;20449;-69
2023/01/01 01:32:04;;;;;;;1999.90;999.90;;;12.10;99.90;;;;;;5026577;28;20437;-69
2023/01/01 01:34:31;;;;;;;1999.90;999.90;;;12.10;99.90;;;;;;5024367;28;20935;-69
2023/01/01 01:36:59;;;;;;;1999.90;999.90;;;12.00;99.90;;;;;;5026396;28;20469;-69
2023/01/01 01:39:26;;;;;;;1999.90;999.90;;;12.00;99.90;;;;;;5025045;28;20449;-69
2023/01/01 01:41:53;;;;;;;1999.90;999.90;;;12.00;99.90;;;;;;5025950;28;20903;-69
2023/01/01 01:44:59;;;;;;;1999.90;999.90;;;12.00;99.90;;;;;;5026059;28;20554;-69
2023/01/01 01:47:31;;;;;;;1999.90;999.90;;;12.00;99.90;;;;;;5004779;28;20485;-70
2023/01/01 01:50:03;;;;;;;1999.90;999.90;;;12.00;99.90;;;;;;5018201;28;20446;-69
2023/01/01 01:52:36;;;;;;;1999.90;999.90;;;12.00;99.90;;;;;;5005818;28;20925;-69
2023/01/01 01:55:05;;;;;;;1999.90;999.90;;;12.00;99.90;;;;;;5006873;28;20454;-69
2023/01/01 01:57:33;;;;;;;1999.90;999.90;;;12.00;99.90;;;;;;5006427;28;20466;-69
2023/01/01 02:00:03;;;;;;;1999.90;999.90;;;12.00;99.90;;;;;;5006177;28;21208;-69
2023/01/01 02:02:37;;;;;;;1999.90;999.90;;;12.00;99.90;;;;;;5005997;28;20464;-70
2023/01/01 02:05:05;;;;;;;1999.90;999.90;;;12.00;99.90;;;;;;5006157;28;21018;-69
2023/01/01 02:07:34;;;;;;;1999.90;999.90;;;11.90;99.90;;;;;;5006166;28;20482;-69
2023/01/01 02:10:02;;;;;;;1999.90;999.90;;;11.90;99.90;;;;;;5005327;28;20454;-68
2023/01/01 02:12:29;;;;;;;1999.90;999.90;;;11.90;99.90;;;;;;5007511;28;20523;-68
2023/01/01 02:14:56;;;;;;;1999.90;999.90;;;11.80;99.90;;;;;;5006643;28;20450;-68
2023/01/01 02:17:28;;;;;;;1999.90;999.90;;;11.80;99.90;;;;;;5013866;28;20469;-68
2023/01/01 02:20:10;;;;;;;1999.90;999.90;;;11.70;99.90;;;;;;5023092;28;20464;-68
2023/01/01 02:23:03;;;;;;;1999.90;999.90;;;11.70;99.90;;;;;;5025035;28;20444;-68
2023/01/01 02:25:45;;;;;;;1999.90;999.90;;;11.60;99.90;;;;;;5025998;28;21175;-67
2023/01/01 02:28:24;;;;;;;1999.90;999.90;;;11.60;99.90;;;;;;5025250;28;20476;-68
2023/01/01 02:30:54;;;;;;;1999.90;999.90;;;11.60;99.90;;;;;;5025704;28;20445;-68
2023/01/01 02:33:25;;;;;;;1999.90;999.90;;;11.60;99.90;;;;;;5024963;28;20445;-68
2023/01/01 02:35:56;;;;;;;1999.90;999.90;;;11.60;99.90;;;;;;5026001;28;20456;-68
2023/01/01 02:38:27;;;;;;;1999.90;999.90;;;11.50;99.90;;;;;;5024422;28;20451;-68
2023/01/01 02:40:57;;;;;;;1999.90;999.90;;;11.40;99.90;;;;;;5026032;28;20453;-68
2023/01/01 02:43:24;;;;;;;1999.90;999.90;;;11.50;99.90;;;;;;5024746;28;20441;-68
2023/01/01 02:45:53;;;;;;;1999.90;999.90;;;11.50;99.90;;;;;;5017697;28;21157;-68
2023/01/01 02:48:40;;;;;;;1999.90;999.90;;;11.60;99.90;;;;;;5016837;28;20487;-68
2023/01/01 02:51:17;;;;;;;1999.90;999.90;;;11.70;99.90;;;;;;5025718;28;20460;-68
2023/01/01 02:53:52;;;;;;;1999.90;999.90;;;11.80;99.90;;;;;;5025473;28;20444;-68
2023/01/01 02:56:28;;;;;;;1999.90;999.90;;;11.80;99.90;;;;;;5025338;28;20468;-67
2023/01/01 03:01:58;;;;;;;1999.90;999.90;;;11.90;99.90;;;;;;5026258;28;20428;-67
2023/01/01 03:04:31;;;;;;;1999.90;999.90;;;11.90;99.90;;;;;;5027066;28;20499;-68
2023/01/01 03:07:06;;;;;;;1999.90;999.90;;;12.00;99.90;;;;;;5027843;28;20485;-68
2023/01/01 03:09:42;;;;;;;1999.90;999.90;;;12.00;99.90;;;;;;5027262;28;20475;-68
2023/01/01 03:12:18;;;;;;;1999.90;999.90;;;12.10;99.90;;;;;;5027474;28;20452;-68
2023/01/01 03:14:50;;;;;;;1999.90;999.90;;;12.10;99.90;;;;;;5027913;28;20475;-69
2023/01/01 03:17:26;;;;;;;1999.90;999.90;;;12.00;99.90;;;;;;5028057;28;20456;-68
2023/01/01 03:19:55;;;;;;;1999.90;999.90;;;12.00;99.90;;;;;;5026903;28;20965;-68
2023/01/01 03:22:27;;;;;;;1999.90;999.90;;;12.00;99.90;;;;;;5027254;28;20459;-68
2023/01/01 03:25:00;;;;;;;1999.90;999.90;;;11.80;99.90;;;;;;5026809;28;20926;-68
2023/01/01 03:27:31;;;;;;;1999.90;999.90;;;11.70;99.90;;;;;;5027406;28;20527;-68
2023/01/01 03:30:01;;;;;;;1999.90;999.90;;;11.60;99.90;;;;;;5027079;28;20457;-69
2023/01/01 03:35:18;;;;;;;1999.90;999.90;;;11.50;99.90;;;;;;5030020;28;20440;-67
2023/01/01 03:37:48;;;;;;;1999.90;999.90;;;11.50;99.90;;;;;;5030503;28;20551;-68
2023/01/01 03:40:18;;;;;;;1999.90;999.90;;;11.50;99.90;;;;;;5029553;28;20441;-68
2023/01/01 03:42:51;;;;;;;1999.90;999.90;;;11.50;99.90;;;;;;5030075;28;20444;-68
2023/01/01 03:45:22;;;;;;;1999.90;999.90;;;11.50;99.90;;;;;;5030428;28;20467;-69
2023/01/01 03:47:51;;;;;;;1999.90;999.90;;;11.40;99.90;;;;;;5030290;28;21309;-69
2023/01/01 03:50:21;;;;;;;1999.90;999.90;;;11.30;99.90;;;;;;5029400;28;20460;-68
2023/01/01 03:52:57;;;;;;;1999.90;999.90;;;11.30;99.90;;;;;;5029953;28;20456;-68
2023/01/01 03:55:32;;;;;;;1999.90;999.90;;;11.40;99.90;;;;;;5030397;28;20455;-69
2023/01/01 03:58:03;;;;;;;1999.90;999.90;;;11.40;99.90;;;;;;5030576;28;20464;-69
2023/01/01 04:00:34;;;;;;;1999.90;999.90;;;11.40;99.90;;;;;;5029242;28;21209;-67
2023/01/01 04:03:06;;;;;;;1999.90;999.90;;;11.50;99.90;;;;;;5029594;28;20961;-68
2023/01/01 04:05:37;;;;;;;1999.90;999.90;;;11.40;99.90;;;;;;5029776;28;20456;-68
2023/01/01 04:08:05;;;;;;;1999.90;999.90;;;11.40;99.90;;;;;;5029669;28;20487;-68
2023/01/01 04:10:35;;;;;;;1999.90;999.90;;;11.40;99.90;;;;;;5029348;28;20456;-68
2023/01/01 04:13:04;;;;;;;1999.90;999.90;;;11.30;99.90;;;;;;5029497;28;20433;-69
2023/01/01 04:15:34;;;;;;;1999.90;999.90;;;11.20;99.90;;;;;;5029835;28;20457;-68
2023/01/01 04:18:03;;;;;;;1999.90;999.90;;;11.20;99.90;;;;;;5029639;28;20475;-69
2023/01/01 04:20:30;;;;;;;1999.90;999.90;;;11.20;99.90;;;;;;5028882;28;20951;-68
2023/01/01 04:22:58;;;;;;;1999.90;999.90;;;11.10;99.90;;;;;;5029109;28;20449;-68
2023/01/01 04:25:26;;;;;;;1999.90;999.90;;;11.00;99.90;;;;;;5029279;28;20456;-68
2023/01/01 04:27:52;;;;;;;1999.90;999.90;;;10.90;99.90;;;;;;5029140;28;21033;-69
2023/01/01 04:30:19;;;;;;;1999.90;999.90;;;10.90;99.90;;;;;;5028619;28;20448;-68
2023/01/01 04:32:46;;;;;;;1999.90;999.90;;;10.90;99.90;;;;;;5028817;28;20449;-68
2023/01/01 04:35:15;;;;;;;1999.90;999.90;;;10.80;99.90;;;;;;5029350;28;20837;-68
2023/01/01 04:37:43;;;;;;;1999.90;999.90;;;10.80;99.90;;;;;;5029230;28;20460;-68
2023/01/01 04:40:12;;;;;;;1999.90;999.90;;;10.80;99.90;;;;;;5028151;28;20449;-68
2023/01/01 04:42:39;;;;;;;1999.90;999.90;;;10.80;99.90;;;;;;5027748;28;20452;-68
2023/01/01 04:45:07;;;;;;;1999.90;999.90;;;10.80;99.90;;;;;;5029031;28;20452;-68
2023/01/01 04:47:34;;;;;;;1999.90;999.90;;;10.80;99.90;;;;;;5029088;28;20889;-69
2023/01/01 04:50:01;;;;;;;1999.90;999.90;;;10.80;99.90;;;;;;5028055;28;20448;-68
2023/01/01 04:52:29;;;;;;;1999.90;999.90;;;10.80;99.90;;;;;;5028456;28;20444;-68
2023/01/01 04:54:56;;;;;;;1999.90;999.90;;;10.90;99.90;;;;;;5028912;28;20472;-67
2023/01/01 04:57:23;;;;;;;1999.90;999.90;;;11.00;99.90;;;;;;5029201;28;20936;-67
2023/01/01 04:59:49;;;;;;;1999.90;999.90;;;11.10;99.90;;;;;;5027760;28;20460;-68
2023/01/01 05:02:16;;;;;;;1999.90;999.90;;;11.10;99.90;;;;;;5028352;28;20445;-67
2023/01/01 05:04:43;;;;;;;1999.90;999.90;;;11.20;99.90;;;;;;5028328;28;20452;-67
2023/01/01 05:07:10;;;;;;;1999.90;999.90;;;11.10;99.90;;;;;;5028208;28;20465;-68
2023/01/01 05:09:38;;;;;;;1999.90;999.90;;;11.20;99.90;;;;;;5027625;28;20962;-68
2023/01/01 05:12:05;;;;;;;1999.90;999.90;;;11.10;99.90;;;;;;5028169;28;20494;-68
2023/01/01 05:14:32;;;;;;;1999.90;999.90;;;11.00;99.90;;;;;;5028541;28;20456;-67
2023/01/01 05:16:58;;;;;;;1999.90;999.90;;;11.00;99.90;;;;;;5028209;28;20469;-67
2023/01/01 05:19:25;;;;;;;1999.90;999.90;;;11.00;99.90;;;;;;5027457;28;20524;-68
2023/01/01 05:21:53;;;;;;;1999.90;999.90;;;11.00;99.90;;;;;;5028438;28;20444;-68
2023/01/01 05:24:19;;;;;;;1999.90;999.90;;;11.10;99.90;;;;;;5028067;28;20457;-68
2023/01/01 05:26:48;;;;;;;1999.90;999.90;;;11.20;99.90;;;;;;5028118;28;20471;-68
2023/01/01 05:29:14;;;;;;;1999.90;999.90;;;11.20;99.90;;;;;;5027615;28;20489;-68
2023/01/01 05:31:41;;;;;;;1999.90;999.90;;;11.30;99.90;;;;;;5028469;28;20459;-67
2023/01/01 05:34:08;;;;;;;1999.90;999.90;;;11.30;99.90;;;;;;5027423;28;20444;-68
2023/01/01 05:36:37;;;;;;;1999.90;999.90;;;11.40;99.90;;;;;;5027879;28;20982;-67
2023/01/01 05:39:04;;;;;;;1999.90;999.90;;;11.40;99.90;;;;;;5027148;28;20845;-68
2023/01/01 05:41:34;;;;;;;1999.90;999.90;;;11.40;99.90;;;;;;5028109;28;20444;-67
2023/01/01 05:44:04;;;;;;;1999.90;999.90;;;11.50;99.90;;;;;;5027479;28;20449;-68
2023/01/01 05:46:31;;;;;;;1999.90;999.90;;;11.50;99.90;;;;;;5027874;28;20568;-68
2023/01/01 05:48:57;;;;;;;1999.90;999.90;;;11.50;99.90;;;;;;5026674;28;20851;-68
2023/01/01 05:51:26;;;;;;;1999.90;999.90;;;11.40;99.90;;;;;;5028093;28;20456;-68
2023/01/01 05:53:54;;;;;;;1999.90;999.90;;;11.30;99.90;;;;;;5027343;28;20479;-68
2023/01/01 05:56:21;;;;;;;1999.90;999.90;;;11.20;99.90;;;;;;5028077;28;20477;-68
2023/01/01 05:58:48;;;;;;;1999.90;999.90;;;11.20;99.90;;;;;;5026757;28;20441;-68
2023/01/01 06:01:18;;;;;;;1999.90;999.90;;;11.10;99.90;;;;;;5027356;28;20445;-68
2023/01/01 06:03:47;;;;;;;1999.90;999.90;;;11.10;99.90;;;;;;5027178;28;21280;-68
2023/01/01 06:06:17;;;;;;;1999.90;999.90;;;11.00;99.90;;;;;;5027419;28;20485;-68
2023/01/01 06:08:49;;;;;;;1999.90;999.90;;;11.00;99.90;;;;;;5026885;28;20496;-68
2023/01/01 06:11:16;;;;;;;1999.90;999.90;;;11.00;99.90;;;;;;5027005;28;20460;-68
2023/01/01 06:13:42;;;;;;;1999.90;999.90;;;10.90;99.90;;;;;;5027044;28;20445;-68
2023/01/01 06:16:10;;;;;;;1999.90;999.90;;;11.00;99.90;;;;;;5027406;28;20496;-68
2023/01/01 06:18:38;;;;;;;1999.90;999.90;;;11.00;99.90;;;;;;5026746;28;20452;-68
2023/01/01 06:21:06;;;;;;;1999.90;999.90;;;11.00;99.90;;;;;;5027359;28;20453;-68
2023/01/01 06:23:33;;;;;;;1999.90;999.90;;;11.00;99.90;;;;;;5027282;28;20681;-68
2023/01/01 06:26:08;;;;;;;1999.90;999.90;;;11.00;99.90;;;;;;5027157;28;20444;-68
2023/01/01 06:28:35;;;;;;;1999.90;999.90;;;11.00;99.90;;;;;;5026477;28;20488;-68
2023/01/01 06:31:02;;;;;;;1999.90;999.90;;;11.00;99.90;;;;;;5027618;28;20452;-67
2023/01/01 06:33:29;;;;;;;1999.90;999.90;;;10.90;99.90;;;;;;5026780;28;20931;-68
2023/01/01 06:35:57;;;;;;;1999.90;999.90;;;10.90;99.90;;;;;;5027418;28;20464;-68
2023/01/01 06:38:24;;;;;;;1999.90;999.90;;;10.90;99.90;;;;;;5026731;28;20448;-68
2023/01/01 06:40:58;;;;;;;1999.90;999.90;;;11.00;99.90;;;;;;5027524;28;20453;-68
2023/01/01 06:43:25;;;;;;;1999.90;999.90;;;11.00;99.90;;;;;;5026770;28;20945;-68
2023/01/01 06:46:03;;;;;;;1999.90;999.90;;;11.10;99.90;;;;;;5027609;28;20958;-68
2023/01/01 06:48:31;;;;;;;1999.90;999.90;;;11.10;99.90;;;;;;5026187;28;20488;-69
2023/01/01 06:51:05;;;;;;;1999.90;999.90;;;11.20;99.90;;;;;;5027248;28;20455;-69
2023/01/01 06:53:32;;;;;;;1999.90;999.90;;;11.20;99.90;;;;;;5026900;28;20795;-69
2023/01/01 06:55:59;;;;;;;1999.90;999.90;;;11.20;99.90;;;;;;5027237;28;20455;-69
2023/01/01 06:58:25;;;;;;;1999.90;999.90;;;11.20;99.90;;;;;;5026273;28;20824;-68
2023/01/01 07:00:52;;;;;;;1999.90;999.90;;;11.20;99.90;;;;;;5027175;28;20449;-68
2023/01/01 07:03:19;;;;;;;1999.90;999.90;;;11.20;99.90;;;;;;5026782;28;20503;-69
2023/01/01 07:05:45;;;;;;;1999.90;999.90;;;11.20;99.90;;;;;;5027519;28;20453;-68
2023/01/01 07:08:14;;;;;;;1999.90;999.90;;;11.30;99.90;;;;;;5030627;28;20484;-69
2023/01/01 07:10:40;;;;;;;1999.90;999.90;;;11.30;99.90;;;;;;5030357;28;20460;-68
2023/01/01 07:13:07;;;;;;;1999.90;999.90;;;11.30;99.90;;;;;;5030525;28;20468;-68
2023/01/01 07:15:34;;;;;;;1999.90;999.90;;;11.40;99.90;;;;;;5030321;28;20456;-68
2023/01/01 07:18:01;;;;;;;1999.90;999.90;;;11.40;99.90;;;;;;5030568;28;20477;-69
2023/01/01 07:20:28;;;;;;;1999.90;999.90;;;11.40;99.90;;;;;;5029669;28;20451;-68
2023/01/01 07:22:54;;;;;;;1999.90;999.90;;;11.40;99.90;;;;;;5030523;28;20819;-68
2023/01/01 07:25:23;;;;;;;1999.90;999.90;;;11.40;99.90;;;;;;5030593;28;20445;-68
2023/01/01 07:27:49;;;;;;;1999.90;999.90;;;11.40;99.90;;;;;;5030342;28;20471;-68
2023/01/01 07:30:16;;;;;;;1999.90;999.90;;;11.50;99.90;;;;;;5029744;28;20527;-68
2023/01/01 07:32:43;;;;;;;1999.90;999.90;;;11.40;99.90;;;;;;5029764;28;20453;-69
2023/01/01 07:35:10;;;;;;;1999.90;999.90;;;11.40;99.90;;;;;;5030548;28;20453;-68
2023/01/01 07:37:37;;;;;;;1999.90;999.90;;;11.50;99.90;;;;;;5030060;28;20461;-68
2023/01/01 07:40:04;;;;;;;1999.90;999.90;;;11.50;99.90;;;;;;5029441;28;20467;-68
2023/01/01 07:42:32;;;;;;;1999.90;999.90;;;11.50;99.90;;;;;;5029778;28;20571;-69
2023/01/01 07:44:59;;;;;;;1999.90;999.90;;;11.50;99.90;;;;;;5030118;28;20855;-68
2023/01/01 07:47:26;;;;;;;1999.90;999.90;;;11.50;99.90;;;;;;5029486;28;20867;-68
2023/01/01 07:49:53;;;;;;;1999.90;999.90;;;11.50;99.90;;;;;;5029102;28;20492;-68
2023/01/01 07:52:20;;;;;;;1999.90;999.90;;;11.50;99.90;;;;;;5029586;28;21263;-68
2023/01/01 07:54:47;;;;;;;1999.90;999.90;;;11.50;99.90;;;;;;5029606;28;20445;-68
2023/01/01 07:57:14;;;;;;;1999.90;999.90;;;11.40;99.90;;;;;;5029636;28;20465;-68
2023/01/01 07:59:42;;;;;;;1999.90;999.90;;;11.40;99.90;;;;;;5028672;28;20449;-69
2023/01/01 08:02:11;;;;;;;1999.90;999.90;;;11.40;99.90;;;;;;5029117;28;20453;-68
2023/01/01 08:04:38;;;;;;;1999.90;999.90;;;11.40;99.90;;;;;;5029610;28;20445;-68
2023/01/01 08:07:05;;;;;;;1999.90;999.90;;;11.40;99.90;;;;;;5029771;28;20460;-68
2023/01/01 08:09:31;;;;;;;1999.90;999.90;;;11.40;99.90;;;;;;5028693;28;20488;-69
2023/01/01 08:11:58;;;;;;;1999.90;999.90;;;11.50;99.90;;;;;;5029680;28;20452;-69
2023/01/01 08:14:25;;;;;;;1999.90;999.90;;;11.50;99.90;;;;;;5028841;28;20453;-68
2023/01/01 08:16:53;;;;;;;1999.90;999.90;;;11.50;99.90;;;;;;5029485;28;20480;-68
2023/01/01 08:19:20;;;;;;;1999.90;999.90;;;11.50;99.90;;;;;;5028807;28;20453;-69
2023/01/01 08:21:46;;;;;;;1999.90;999.90;;;11.50;99.90;;;;;;5029473;28;20445;-69
2023/01/01 08:24:14;;;;;;;1999.90;999.90;;;11.50;99.90;;;;;;5029151;28;20448;-68
2023/01/01 08:26:40;;;;;;;1999.90;999.90;;;11.50;99.90;;;;;;5029020;28;20473;-69
2023/01/01 08:29:07;;;;;;;1999.90;999.90;;;11.50;99.90;;;;;;5028262;28;20479;-68
2023/01/01 08:31:34;;;;;;;1999.90;999.90;;;11.50;99.90;;;;;;5029269;28;20455;-69
2023/01/01 08:34:02;;;;;;;1999.90;999.90;;;11.40;99.90;;;;;;5028844;28;20459;-68
2023/01/01 08:36:29;;;;;;;1999.90;999.90;;;11.50;99.90;;;;;;5028962;28;20473;-68
2023/01/01 08:38:56;;;;;;;1999.90;999.90;;;11.50;99.90;;;;;;5028366;28;20457;-69
2023/01/01 08:41:22;;;;;;;1999.90;999.90;;;11.50;99.90;;;;;;5029021;28;20455;-69
2023/01/01 08:43:49;;;;;;;1999.90;999.90;;;11.50;99.90;;;;;;5028377;28;21251;-68
2023/01/01 08:46:16;;;;;;;1999.90;999.90;;;11.50;99.90;;;;;;5018404;28;20476;-68
2023/01/01 08:48:43;;;;;;;1999.90;999.90;;;11.50;99.90;;;;;;5008091;28;20489;-68
2023/01/01 08:51:11;;;;;;;1999.90;999.90;;;11.40;99.90;;;;;;5009125;28;20544;-68
2023/01/01 08:53:38;;;;;;;1999.90;999.90;;;11.50;99.90;;;;;;5008439;28;20989;-69
2023/01/01 08:56:06;;;;;;;1999.90;999.90;;;11.60;99.90;;;;;;5008840;28;21015;-68
2023/01/01 08:58:34;;;;;;;1999.90;999.90;;;11.60;99.90;;;;;;5007892;28;20454;-69
2023/01/01 09:01:01;;;;;;;1999.90;999.90;;;11.70;99.90;;;;;;5009164;28;20814;-68
2023/01/01 09:03:28;;;;;;;1999.90;999.90;;;11.80;99.90;;;;;;5008425;28;20450;-68
2023/01/01 09:05:55;;;;;;;1999.90;999.90;;;11.90;99.90;;;;;;5008821;28;20453;-68
2023/01/01 09:08:23;;;;;;;1999.90;999.90;;;12.10;99.90;;;;;;5008192;28;20445;-68
2023/01/01 09:10:51;;;;;;;1999.90;999.90;;;12.20;99.90;;;;;;5006421;28;20466;-70
2023/01/01 09:13:20;;;;;;;1999.90;999.90;;;12.30;99.90;;;;;;5003874;28;20460;-68
2023/01/01 09:15:47;;;;;;;1999.90;999.90;;;12.40;99.90;;;;;;5008175;28;20454;-70
2023/01/01 09:18:14;;;;;;;1999.90;999.90;;;12.50;99.90;;;;;;5007963;28;20711;-70
2023/01/01 09:20:41;;;;;;;1999.90;999.90;;;12.60;99.90;;;;;;5008555;28;20446;-71
2023/01/01 09:23:08;;;;;;;1999.90;999.90;;;12.70;99.90;;;;;;5008197;28;20454;-69
2023/01/01 09:25:36;;;;;;;1999.90;999.90;;;12.70;99.90;;;;;;5001104;28;20826;-70
2023/01/01 09:28:05;;;;;;;1999.90;999.90;;;12.80;99.90;;;;;;5004842;28;20492;-70
2023/01/01 09:30:32;;;;;;;1999.90;999.90;;;12.80;99.90;;;;;;5007501;28;21282;-70
2023/01/01 09:32:59;;;;;;;1999.90;999.90;;;12.90;99.90;;;;;;5008144;28;20932;-70
2023/01/01 09:35:26;;;;;;;1999.90;999.90;;;12.90;99.90;;;;;;5000234;28;20454;-70
2023/01/01 09:37:53;;;;;;;1999.90;999.90;;;12.90;99.90;;;;;;5007763;28;20504;-70
2023/01/01 09:40:28;;;;;;;1999.90;999.90;;;13.00;99.90;;;;;;5007659;28;20457;-70
2023/01/01 09:43:06;;;;;;;1999.90;999.90;;;13.10;99.90;;;;;;4999940;28;20457;-70
2023/01/01 09:45:37;;;;;;;1999.90;999.90;;;13.20;99.90;;;;;;5007606;28;20461;-70
2023/01/01 09:48:07;;;;;;;1999.90;999.90;;;13.20;99.90;;;;;;5007519;28;20466;-71
2023/01/01 09:50:38;;;;;;;1999.90;999.90;;;13.30;99.90;;;;;;5007526;28;20494;-71
2023/01/01 09:53:12;;;;;;;1999.90;999.90;;;13.40;99.90;;;;;;5007372;28;20836;-70
2023/01/01 09:55:45;;;;;;;1999.90;999.90;;;13.40;99.90;;;;;;5008011;28;20454;-70
2023/01/01 09:58:14;;;;;;;1999.90;999.90;;;13.60;99.90;;;;;;5007434;28;20460;-70
2023/01/01 10:00:44;;;;;;;1999.90;999.90;;;13.60;99.90;;;;;;5007707;28;20461;-70
2023/01/01 10:03:27;;;;;;;1999.90;999.90;;;13.70;99.90;;;;;;5007685;28;20468;-71
2023/01/01 10:06:00;;;;;;;1999.90;999.90;;;13.80;99.90;;;;;;5007664;28;20446;-71
2023/01/01 10:08:37;;;;;;;1999.90;999.90;;;14.10;99.90;;;;;;5007158;28;20485;-70
2023/01/01 10:11:14;;;;;;;1999.90;999.90;;;14.30;99.90;;;;;;5007194;28;20448;-72
2023/01/01 10:13:44;;;;;;;1999.90;999.90;;;14.50;99.90;;;;;;5007898;28;20456;-71
2023/01/01 10:16:19;;;;;;;1999.90;999.90;;;14.60;99.90;;;;;;5007922;28;20472;-70
2023/01/01 10:18:48;;;;;;;1999.90;999.90;;;14.80;99.90;;;;;;5007271;28;20536;-71
2023/01/01 10:21:17;;;;;;;1999.90;999.90;;;15.10;99.90;;;;;;5007464;28;20461;-70
2023/01/01 10:23:48;;;;;;;1999.90;999.90;;;15.30;99.90;;;;;;5007315;28;20437;-70
2023/01/01 10:26:18;;;;;;;1999.90;999.90;;;15.60;99.90;;;;;;5007508;28;20486;-71
2023/01/01 10:28:53;;;;;;;1999.90;999.90;;;16.00;99.90;;;;;;5003897;28;20454;-70
2023/01/01 10:31:28;;;;;;;1999.90;999.90;;;16.60;99.90;;;;;;5010565;28;20452;-70
2023/01/01 10:33:55;;;;;;;1999.90;999.90;;;17.00;99.90;;;;;;5008728;28;20456;-70
2023/01/01 10:36:22;;;;;;;1999.90;999.90;;;17.40;99.90;;;;;;5003263;28;20477;-72
2023/01/01 10:38:50;;;;;;;1999.90;999.90;;;17.70;99.90;;;;;;5006372;28;21150;-71
2023/01/01 10:41:18;;;;;;;1999.90;999.90;;;18.10;99.90;;;;;;5009619;28;20460;-75
2023/01/01 10:43:45;;;;;;;1999.90;999.90;;;18.30;99.90;;;;;;5008527;28;20465;-72
2023/01/01 10:46:18;;;;;;;1999.90;999.90;;;18.40;99.90;;;;;;4999886;28;21039;-72
2023/01/01 10:49:05;;;;;;;1999.90;999.90;;;18.30;99.90;;;;;;5004303;28;20453;-72
2023/01/01 10:51:32;;;;;;;1999.90;999.90;;;18.10;99.90;;;;;;5011503;28;20434;-70
2023/01/01 10:53:59;;;;;;;1999.90;999.90;;;17.90;99.90;;;;;;5010895;28;20936;-70
2023/01/01 10:56:39;;;;;;;1999.90;999.90;;;17.70;99.90;;;;;;5010971;28;21021;-71
2023/01/01 10:59:36;;;;;;;1999.90;999.90;;;17.50;99.90;;;;;;5007528;28;21079;-70
2023/01/01 11:02:19;;;;;;;1999.90;999.90;;;17.20;99.90;;;;;;4999089;28;20456;-71
2023/01/01 11:04:46;;;;;;;1999.90;999.90;;;17.10;99.90;;;;;;5007598;28;20816;-71
2023/01/01 11:07:28;;;;;;;1999.90;999.90;;;17.20;99.90;;;;;;5011324;28;20487;-71
2023/01/01 11:10:00;;;;;;;1999.90;999.90;;;17.10;99.90;;;;;;5022283;28;20489;-71
2023/01/01 11:12:30;;;;;;;1999.90;999.90;;;17.00;99.90;;;;;;5021383;28;20502;-70
2023/01/01 11:14:59;;;;;;;1999.90;999.90;;;16.90;99.90;;;;;;5019772;28;20471;-71
2023/01/01 11:17:27;;;;;;;1999.90;999.90;;;16.90;99.90;;;;;;5020666;28;20470;-71
2023/01/01 11:19:55;;;;;;;1999.90;999.90;;;16.90;99.90;;;;;;5021814;28;20437;-71
2023/01/01 11:22:38;;;;;;;1999.90;999.90;;;17.00;99.90;;;;;;5017127;28;20946;-71
2023/01/01 11:25:17;;;;;;;1999.90;999.90;;;16.90;99.90;;;;;;5024228;28;20848;-70
2023/01/01 11:27:45;;;;;;;1999.90;999.90;;;17.00;99.90;;;;;;5025212;28;20457;-70
2023/01/01 11:30:23;;;;;;;1999.90;999.90;;;17.10;99.90;;;;;;5024553;28;20475;-71
2023/01/01 11:32:53;;;;;;;1999.90;999.90;;;17.20;99.90;;;;;;5026820;28;20437;-69
2023/01/01 11:35:22;;;;;;;1999.90;999.90;;;17.20;99.90;;;;;;5027985;28;20441;-70
2023/01/01 11:37:52;;;;;;;1999.90;999.90;;;17.30;99.90;;;;;;5024760;28;20457;-70
2023/01/01 11:40:21;;;;;;;1999.90;999.90;;;17.20;99.90;;;;;;5027688;28;20969;-70
2023/01/01 11:42:52;;;;;;;1999.90;999.90;;;17.20;99.90;;;;;;5028453;28;21163;-70
2023/01/01 11:45:23;;;;;;;1999.90;999.90;;;17.20;99.90;;;;;;5026684;28;20790;-70
2023/01/01 11:47:56;;;;;;;1999.90;999.90;;;17.20;99.90;;;;;;5023288;28;22300;-70
2023/01/01 11:50:30;;;;;;;1999.90;999.90;;;17.20;99.90;;;;;;5023267;28;20773;-70
2023/01/01 11:52:58;;;;;;;1999.90;999.90;;;17.10;99.90;;;;;;5020666;28;20951;-70
2023/01/01 11:55:41;;;;;;;1999.90;999.90;;;17.10;99.90;;;;;;5025906;28;20539;-71
2023/01/01 11:58:15;;;;;;;1999.90;999.90;;;17.10;99.90;;;;;;5019021;28;20523;-69
2023/01/01 12:00:43;;;;;;;1999.90;999.90;;;17.10;99.90;;;;;;5019678;28;20811;-70
2023/01/01 12:03:19;;;;;;;1999.90;999.90;;;17.00;99.90;;;;;;5024889;28;20433;-69
2023/01/01 12:05:50;;;;;;;1999.90;999.90;;;17.00;99.90;;;;;;5025190;28;20801;-70
2023/01/01 12:08:27;;;;;;;1999.90;999.90;;;17.00;99.90;;;;;;5027027;28;20445;-71
2023/01/01 12:10:58;;;;;;;1999.90;999.90;;;17.00;99.90;;;;;;4986915;28;1076416;-71
2023/01/01 12:13:28;;;;;;;1999.90;999.90;;;17.10;99.90;;;;;;5024780;28;20206;-71
2023/01/01 12:16:06;;;;;;;1999.90;999.90;;;17.10;99.90;;;;;;5021230;28;20461;-70